createdAt,value
2024-02-14T00:00:38.393Z,8.48
2024-02-14T00:03:30.272Z,10.09
2024-02-14T00:06:02.268Z,9.21
2024-02-14T00:08:34.228Z,8.14
2024-02-14T00:11:06.308Z,7.42
2024-02-14T00:13:36.659Z,6.94
2024-02-14T00:16:10.808Z,7.50
2024-02-14T00:18:42.831Z,9.54
2024-02-14T00:21:14.986Z,10.35
2024-02-14T00:23:45.828Z,9.40
2024-02-14T00:26:16.650Z,8.41
2024-02-14T00:28:46.994Z,7.72
2024-02-14T00:31:18.923Z,7.25
2024-02-14T00:33:49.431Z,6.87
2024-02-14T00:36:21.616Z,6.55
2024-02-14T00:38:52.716Z,6.96
2024-02-14T00:41:24.959Z,9.06
2024-02-14T00:43:55.299Z,10.12
2024-02-14T00:46:27.299Z,9.12
2024-02-14T00:49:00.894Z,8.11
2024-02-14T00:51:33.009Z,7.43
2024-02-14T00:54:05.056Z,6.96
2024-02-14T00:56:37.320Z,7.12
2024-02-14T00:59:09.822Z,9.10
2024-02-14T01:01:42.350Z,10.32
2024-02-14T01:04:14.341Z,9.35
2024-02-14T01:06:46.391Z,8.28
2024-02-14T01:09:18.507Z,7.47
2024-02-14T01:11:50.576Z,6.92
2024-02-14T01:14:23.655Z,6.82
2024-02-14T01:16:56.059Z,8.53
2024-02-14T01:19:29.876Z,9.87
2024-02-14T01:22:01.848Z,9.19
2024-02-14T01:24:33.642Z,8.28
2024-02-14T01:27:06.840Z,7.58
2024-02-14T01:29:38.800Z,7.06
2024-02-14T01:32:10.909Z,6.66
2024-02-14T01:34:43.783Z,6.32
2024-02-14T01:37:15.730Z,6.04
2024-02-14T01:39:45.978Z,6.24
2024-02-14T01:42:17.895Z,8.14
2024-02-14T01:44:48.181Z,9.91
2024-02-14T01:47:21.109Z,9.80
2024-02-14T01:49:53.144Z,8.77
2024-02-14T01:52:25.086Z,7.94
2024-02-14T01:54:57.328Z,7.33
2024-02-14T01:57:30.011Z,6.87
2024-02-14T02:00:05.902Z,6.48
2024-02-14T02:02:39.170Z,6.14
2024-02-14T02:05:11.648Z,5.82
2024-02-14T02:07:44.972Z,5.98
2024-02-14T02:10:17.623Z,7.96
2024-02-14T02:12:49.944Z,9.56
2024-02-14T02:15:21.870Z,9.14
2024-02-14T02:17:54.738Z,8.09
2024-02-14T02:20:29.498Z,7.29
2024-02-14T02:23:01.836Z,6.67
2024-02-14T02:25:33.695Z,6.18
2024-02-14T02:28:06.106Z,5.78
2024-02-14T02:30:38.579Z,6.04
2024-02-14T02:33:11.029Z,8.04
2024-02-14T02:35:46.468Z,9.62
2024-02-14T02:38:18.839Z,9.11
2024-02-14T02:40:50.836Z,7.99
2024-02-14T02:43:23.185Z,7.16
2024-02-14T02:45:55.269Z,6.55
2024-02-14T02:48:27.332Z,6.10
2024-02-14T02:51:00.303Z,5.72
2024-02-14T02:53:32.481Z,5.86
2024-02-14T02:56:04.918Z,7.78
2024-02-14T02:58:37.399Z,9.34
2024-02-14T03:01:13.228Z,8.94
2024-02-14T03:03:45.481Z,7.78
2024-02-14T03:06:17.553Z,6.92
2024-02-14T03:08:50.335Z,6.32
2024-02-14T03:11:22.329Z,5.87
2024-02-14T03:13:54.389Z,5.48
2024-02-14T03:16:26.064Z,5.63
2024-02-14T03:19:00.130Z,7.54
2024-02-14T03:21:33.614Z,9.30
2024-02-14T03:24:06.442Z,9.36
2024-02-14T03:26:39.510Z,8.18
2024-02-14T03:29:11.548Z,7.23
2024-02-14T03:31:45.361Z,6.57
2024-02-14T03:34:17.412Z,6.05
2024-02-14T03:36:49.396Z,5.60
2024-02-14T03:39:21.472Z,5.74
2024-02-14T03:41:54.323Z,7.69
2024-02-14T03:44:26.252Z,9.33
2024-02-14T03:46:58.167Z,8.98
2024-02-14T03:49:28.496Z,7.85
2024-02-14T03:52:02.321Z,6.96
2024-02-14T03:54:34.210Z,6.33
2024-02-14T03:57:08.163Z,5.84
2024-02-14T03:59:43.313Z,5.39
2024-02-14T04:02:15.692Z,5.53
2024-02-14T04:04:47.896Z,7.53
2024-02-14T04:07:19.801Z,8.88
2024-02-14T04:09:51.839Z,8.15
2024-02-14T04:12:22.132Z,7.09
2024-02-14T04:14:54.059Z,6.27
2024-02-14T04:17:25.335Z,5.67
2024-02-14T04:19:57.307Z,5.20
2024-02-14T04:22:29.170Z,4.82
2024-02-14T04:25:01.104Z,5.06
2024-02-14T04:27:31.442Z,7.19
2024-02-14T04:30:05.005Z,8.84
2024-02-14T04:32:37.114Z,8.74
2024-02-14T04:35:10.028Z,7.54
2024-02-14T04:37:44.526Z,6.59
2024-02-14T04:40:17.507Z,5.89
2024-02-14T04:42:50.365Z,5.38
2024-02-14T04:45:22.333Z,5.45
2024-02-14T04:47:54.420Z,7.49
2024-02-14T04:50:25.120Z,8.90
2024-02-14T04:52:56.956Z,8.10
2024-02-14T04:55:30.491Z,7.00
2024-02-14T04:58:02.868Z,6.19
2024-02-14T05:00:35.358Z,5.61
2024-02-14T05:03:07.640Z,5.15
2024-02-14T05:05:40.287Z,5.40
2024-02-14T05:08:12.403Z,7.53
2024-02-14T05:10:44.342Z,8.80
2024-02-14T05:13:17.052Z,7.97
2024-02-14T05:15:48.983Z,6.84
2024-02-14T05:18:21.096Z,6.02
2024-02-14T05:20:53.324Z,5.42
2024-02-14T05:23:25.325Z,4.94
2024-02-14T05:25:57.256Z,4.99
2024-02-14T05:28:29.713Z,6.95
2024-02-14T05:31:04.459Z,8.45
2024-02-14T05:33:37.148Z,7.84
2024-02-14T05:36:10.373Z,6.67
2024-02-14T05:38:42.383Z,5.81
2024-02-14T05:41:14.289Z,5.14
2024-02-14T05:43:46.123Z,5.21
2024-02-14T05:46:18.032Z,7.12
2024-02-14T05:48:50.293Z,8.38
2024-02-14T05:51:22.461Z,7.48
2024-02-14T05:53:54.507Z,6.38
2024-02-14T05:56:24.951Z,5.54
2024-02-14T05:58:56.806Z,5.29
2024-02-14T06:01:30.131Z,7.05
2024-02-14T06:04:02.337Z,8.46
2024-02-14T06:06:34.717Z,7.68
2024-02-14T06:09:10.992Z,6.51
2024-02-14T06:11:43.826Z,5.55
2024-02-14T06:14:15.704Z,5.28
2024-02-14T06:16:47.632Z,7.03
2024-02-14T06:19:19.607Z,8.41
2024-02-14T06:21:50.090Z,7.59
2024-02-14T06:24:22.204Z,6.44
2024-02-14T06:26:54.146Z,5.59
2024-02-14T06:29:26.049Z,5.09
2024-02-14T06:31:58.192Z,6.37
2024-02-14T06:34:30.331Z,8.29
2024-02-14T06:37:02.533Z,8.94
2024-02-14T06:39:34.409Z,7.86
2024-02-14T06:42:07.136Z,6.82
2024-02-14T06:44:39.066Z,6.06
2024-02-14T06:47:11.124Z,5.46
2024-02-14T06:49:41.481Z,5.92
2024-02-14T06:52:13.633Z,7.89
2024-02-14T06:54:43.900Z,8.84
2024-02-14T06:57:15.790Z,7.78
2024-02-14T06:59:47.665Z,6.67
2024-02-14T07:02:19.650Z,5.88
2024-02-14T07:04:52.928Z,5.34
2024-02-14T07:07:25.189Z,5.51
2024-02-14T07:09:57.026Z,7.54
2024-02-14T07:12:31.633Z,8.88
2024-02-14T07:15:05.650Z,8.06
2024-02-14T07:17:37.808Z,6.96
2024-02-14T07:20:11.535Z,6.16
2024-02-14T07:22:43.607Z,5.58
2024-02-14T07:25:15.988Z,6.19
2024-02-14T07:27:50.877Z,8.27
2024-02-14T07:30:22.848Z,9.05
2024-02-14T07:32:55.572Z,7.97
2024-02-14T07:35:27.608Z,6.97
2024-02-14T07:37:59.794Z,6.25
2024-02-14T07:40:32.314Z,5.74
2024-02-14T07:43:04.591Z,6.00
2024-02-14T07:45:36.607Z,8.04
2024-02-14T07:48:09.882Z,9.33
2024-02-14T07:50:41.987Z,8.62
2024-02-14T07:53:13.154Z,7.60
2024-02-14T07:55:44.994Z,6.84
2024-02-14T07:58:16.860Z,6.35
2024-02-14T08:00:48.756Z,7.15
2024-02-14T08:03:19.111Z,8.98
2024-02-14T08:05:51.045Z,8.61
2024-02-14T08:08:26.389Z,7.65
2024-02-14T08:10:58.246Z,6.88
2024-02-14T08:13:30.244Z,6.76
2024-02-14T08:16:02.509Z,8.38
2024-02-14T08:18:32.965Z,9.50
2024-02-14T08:21:05.722Z,8.66
2024-02-14T08:23:40.120Z,7.82
2024-02-14T08:26:12.632Z,7.19
2024-02-14T08:28:44.530Z,6.67
2024-02-14T08:31:15.247Z,6.79
2024-02-14T08:33:47.593Z,8.69
2024-02-14T08:36:20.976Z,9.93
2024-02-14T08:38:53.360Z,9.15
2024-02-14T08:41:24.580Z,8.22
2024-02-14T08:43:56.518Z,7.55
2024-02-14T08:46:26.862Z,7.07
2024-02-14T08:48:58.976Z,6.75
2024-02-14T08:51:31.154Z,7.27
2024-02-14T08:54:01.638Z,9.51
2024-02-14T08:56:34.854Z,9.36
2024-02-14T08:59:08.213Z,8.52
2024-02-14T09:01:40.090Z,7.99
2024-02-14T09:04:10.542Z,7.67
2024-02-14T09:06:42.464Z,7.44
2024-02-14T09:09:16.971Z,7.30
2024-02-14T09:11:48.938Z,7.19
2024-02-14T09:14:19.271Z,7.12
2024-02-14T09:16:51.161Z,7.10
2024-02-14T09:19:22.909Z,7.10
2024-02-14T09:21:55.300Z,7.12
2024-02-14T09:24:27.248Z,7.20
2024-02-14T09:26:59.219Z,7.31
2024-02-14T09:29:31.629Z,7.54
2024-02-14T09:32:04.778Z,8.05
2024-02-14T09:34:37.525Z,8.99
2024-02-14T09:37:10.544Z,10.19
2024-02-14T09:39:44.530Z,11.20
2024-02-14T09:42:19.301Z,12.09
2024-02-14T09:44:55.287Z,12.77
2024-02-14T09:47:28.444Z,12.99
2024-02-14T09:50:01.873Z,13.11
2024-02-14T09:52:35.848Z,13.38
2024-02-14T09:55:11.927Z,13.66
2024-02-14T09:57:46.029Z,13.55
2024-02-14T10:00:19.388Z,13.04
2024-02-14T10:02:51.917Z,12.61
2024-02-14T10:05:24.092Z,12.38
2024-02-14T10:07:58.661Z,12.30
2024-02-14T10:10:31.269Z,12.23
2024-02-14T10:13:05.832Z,12.09
2024-02-14T10:15:37.854Z,12.00
2024-02-14T10:18:11.384Z,11.77
2024-02-14T10:20:46.336Z,11.49
2024-02-14T10:23:18.205Z,11.23
2024-02-14T10:25:51.489Z,11.17
2024-02-14T10:28:30.143Z,11.21
2024-02-14T10:31:12.324Z,11.48
2024-02-14T10:33:45.579Z,12.01
2024-02-14T10:36:20.232Z,12.67
2024-02-14T10:38:54.989Z,13.40
2024-02-14T10:41:32.942Z,14.00
2024-02-14T10:44:06.542Z,14.67
2024-02-14T10:46:42.445Z,15.33
2024-02-14T10:49:17.601Z,16.30
2024-02-14T10:51:54.784Z,17.22
2024-02-14T10:54:28.329Z,18.54
2024-02-14T10:57:06.111Z,19.76
2024-02-14T10:59:41.764Z,20.15
2024-02-14T11:02:14.876Z,20.05
2024-02-14T11:04:48.044Z,19.86
2024-02-14T11:07:24.206Z,19.49
2024-02-14T11:10:09.063Z,19.37
2024-02-14T11:12:42.868Z,19.41
2024-02-14T11:15:18.865Z,19.31
2024-02-14T11:17:53.594Z,18.91
2024-02-14T11:20:37.030Z,18.65
2024-02-14T11:23:12.886Z,18.34
2024-02-14T11:25:48.817Z,18.07
2024-02-14T11:28:22.070Z,18.17
2024-02-14T11:30:56.201Z,18.61
2024-02-14T11:33:28.344Z,19.13
2024-02-14T11:36:00.651Z,19.56
2024-02-14T11:38:32.923Z,19.73
2024-02-14T11:41:06.951Z,19.91
2024-02-14T11:43:40.994Z,20.00
2024-02-14T11:46:13.470Z,19.95
2024-02-14T11:48:48.605Z,19.80
2024-02-14T11:51:21.825Z,20.03
2024-02-14T11:53:53.995Z,20.62
2024-02-14T11:56:27.325Z,20.47
2024-02-14T11:58:59.980Z,20.08
2024-02-14T12:01:33.063Z,19.90
2024-02-14T12:04:08.322Z,19.53
2024-02-14T12:06:43.064Z,19.37
2024-02-14T12:09:15.602Z,19.31
2024-02-14T12:11:48.758Z,19.43
2024-02-14T12:14:26.183Z,19.44
2024-02-14T12:17:04.176Z,19.22
2024-02-14T12:19:39.546Z,19.18
2024-02-14T12:22:19.383Z,19.00
2024-02-14T12:24:53.716Z,19.19
2024-02-14T12:27:25.607Z,19.10
2024-02-14T12:29:57.572Z,18.54
2024-02-14T12:32:29.548Z,17.56
2024-02-14T12:35:02.306Z,16.92
2024-02-14T12:37:34.291Z,16.48
2024-02-14T12:40:08.139Z,16.29
2024-02-14T12:42:40.067Z,16.07
2024-02-14T12:45:14.658Z,15.99
2024-02-14T12:47:48.098Z,16.16
2024-02-14T12:50:21.830Z,16.35
2024-02-14T12:52:53.726Z,16.42
2024-02-14T12:55:26.768Z,16.27
2024-02-14T12:57:59.395Z,15.67
2024-02-14T13:00:33.038Z,15.30
2024-02-14T13:03:05.855Z,15.35
2024-02-14T13:05:38.970Z,15.35
2024-02-14T13:08:12.580Z,15.26
2024-02-14T13:10:44.761Z,15.06
2024-02-14T13:13:17.059Z,14.84
2024-02-14T13:15:49.017Z,14.52
2024-02-14T13:18:21.451Z,14.20
2024-02-14T13:20:58.891Z,13.97
2024-02-14T13:23:31.085Z,13.86
2024-02-14T13:26:05.315Z,13.71
2024-02-14T13:28:37.715Z,13.49
2024-02-14T13:31:10.521Z,13.41
2024-02-14T13:33:42.567Z,13.40
2024-02-14T13:36:18.340Z,13.42
2024-02-14T13:38:50.582Z,13.41
2024-02-14T13:41:23.042Z,13.47
2024-02-14T13:43:54.930Z,13.53
2024-02-14T13:46:27.916Z,13.54
2024-02-14T13:48:59.843Z,13.53
2024-02-14T13:51:31.988Z,13.58
2024-02-14T13:54:03.870Z,13.71
2024-02-14T13:56:35.843Z,13.85
2024-02-14T13:59:07.760Z,13.79
2024-02-14T14:01:40.309Z,13.72
2024-02-14T14:04:12.965Z,13.70
2024-02-14T14:06:45.067Z,13.82
2024-02-14T14:09:17.215Z,13.80
2024-02-14T14:11:51.420Z,13.66
2024-02-14T14:14:23.308Z,13.42
2024-02-14T14:16:55.318Z,13.13
2024-02-14T14:19:27.596Z,12.80
2024-02-14T14:22:00.106Z,12.55
2024-02-14T14:24:32.985Z,12.40
2024-02-14T14:27:05.111Z,12.36
2024-02-14T14:29:37.015Z,12.33
2024-02-14T14:32:10.521Z,12.27
2024-02-14T14:34:42.502Z,12.13
2024-02-14T14:37:14.475Z,11.93
2024-02-14T14:39:46.338Z,11.71
2024-02-14T14:42:19.531Z,11.47
2024-02-14T14:44:52.613Z,11.22
2024-02-14T14:47:24.568Z,11.03
2024-02-14T14:49:56.541Z,10.91
2024-02-14T14:52:28.610Z,10.77
2024-02-14T14:55:01.031Z,10.65
2024-02-14T14:57:33.101Z,10.57
2024-02-14T15:00:05.995Z,10.50
2024-02-14T15:02:38.230Z,10.42
2024-02-14T15:05:11.936Z,10.32
2024-02-14T15:07:44.169Z,10.27
2024-02-14T15:10:16.184Z,10.20
2024-02-14T15:12:48.082Z,10.12
2024-02-14T15:15:21.161Z,10.06
2024-02-14T15:17:53.368Z,10.04
2024-02-14T15:20:25.311Z,10.03
2024-02-14T15:22:57.262Z,9.96
2024-02-14T15:25:29.644Z,9.86
2024-02-14T15:28:01.610Z,9.78
2024-02-14T15:30:51.542Z,9.68
2024-02-14T15:33:24.761Z,9.58
2024-02-14T15:35:58.989Z,9.51
2024-02-14T15:38:31.229Z,9.46
2024-02-14T15:41:04.531Z,9.41
2024-02-14T15:43:36.902Z,9.37
2024-02-14T15:46:08.996Z,9.33
2024-02-14T15:48:42.527Z,9.28
2024-02-14T15:51:18.937Z,9.24
2024-02-14T15:53:50.996Z,9.20
2024-02-14T15:56:22.895Z,9.13
2024-02-14T15:58:54.819Z,9.08
2024-02-14T16:01:26.682Z,9.05
2024-02-14T16:03:58.672Z,9.00
2024-02-14T16:06:30.680Z,8.96
2024-02-14T16:09:02.821Z,8.92
2024-02-14T16:11:35.355Z,8.89
2024-02-14T16:14:07.317Z,8.87
2024-02-14T16:16:39.244Z,8.85
2024-02-14T16:19:11.776Z,8.83
2024-02-14T16:21:43.750Z,8.79
2024-02-14T16:24:16.656Z,8.75
2024-02-14T16:26:48.613Z,8.72
2024-02-14T16:29:20.523Z,8.70
2024-02-14T16:31:52.423Z,8.68
2024-02-14T16:34:24.399Z,8.67
2024-02-14T16:36:56.952Z,8.65
2024-02-14T16:39:39.828Z,8.64
2024-02-14T16:42:16.387Z,8.62
2024-02-14T16:44:49.196Z,8.58
2024-02-14T16:47:21.232Z,8.55
2024-02-14T16:49:53.280Z,8.53
2024-02-14T16:52:25.262Z,8.51
2024-02-14T16:54:57.248Z,8.50
2024-02-14T16:57:29.271Z,8.49
2024-02-14T17:00:01.476Z,8.45
2024-02-14T17:02:33.580Z,8.43
2024-02-14T17:05:05.852Z,8.41
2024-02-14T17:07:37.936Z,8.38
2024-02-14T17:10:11.749Z,8.36
2024-02-14T17:12:43.681Z,8.33
2024-02-14T17:15:16.016Z,8.31
2024-02-14T17:17:48.033Z,8.30
2024-02-14T17:20:20.893Z,8.29
2024-02-14T17:22:53.045Z,8.28
2024-02-14T17:25:25.683Z,8.28
2024-02-14T17:27:58.028Z,8.27
2024-02-14T17:30:30.033Z,8.26
2024-02-14T17:33:03.411Z,8.25
2024-02-14T17:35:35.555Z,8.24
2024-02-14T17:38:07.895Z,8.25
2024-02-14T17:40:39.813Z,8.24
2024-02-14T17:43:11.716Z,8.22
2024-02-14T17:45:43.926Z,8.21
2024-02-14T17:48:15.932Z,8.19
2024-02-14T17:50:50.333Z,8.18
2024-02-14T17:53:22.262Z,8.15
2024-02-14T17:55:54.432Z,8.14
2024-02-14T17:58:26.937Z,8.13
2024-02-14T18:00:59.678Z,8.11
2024-02-14T18:03:31.623Z,8.09
2024-02-14T18:06:04.403Z,8.08
2024-02-14T18:08:36.899Z,8.06
2024-02-14T18:11:09.088Z,8.04
2024-02-14T18:13:41.102Z,8.03
2024-02-14T18:16:13.021Z,8.01
2024-02-14T18:18:47.046Z,7.98
2024-02-14T18:21:20.856Z,7.95
2024-02-14T18:23:52.720Z,7.93
2024-02-14T18:26:25.144Z,7.91
2024-02-14T18:28:56.972Z,7.89
2024-02-14T18:31:29.498Z,7.86
2024-02-14T18:34:01.591Z,7.83
2024-02-14T18:36:33.619Z,7.79
2024-02-14T18:39:07.434Z,7.76
2024-02-14T18:41:40.739Z,7.75
2024-02-14T18:44:12.581Z,7.73
2024-02-14T18:46:48.168Z,7.72
2024-02-14T18:49:20.329Z,7.70
2024-02-14T18:51:52.553Z,7.69
2024-02-14T18:54:26.028Z,7.67
2024-02-14T18:56:57.982Z,7.65
2024-02-14T18:59:29.836Z,7.62
2024-02-14T19:02:01.730Z,7.60
2024-02-14T19:04:34.451Z,7.58
2024-02-14T19:07:06.768Z,7.56
2024-02-14T19:09:38.611Z,7.54
2024-02-14T19:12:11.092Z,7.54
2024-02-14T19:14:44.537Z,7.53
2024-02-14T19:17:16.538Z,7.52
2024-02-14T19:19:48.497Z,7.53
2024-02-14T19:22:20.526Z,7.52
2024-02-14T19:24:52.455Z,7.51
2024-02-14T19:27:24.429Z,7.49
2024-02-14T19:29:56.302Z,7.48
2024-02-14T19:32:28.438Z,7.48
2024-02-14T19:35:01.269Z,7.47
2024-02-14T19:37:33.367Z,7.47
2024-02-14T19:40:07.752Z,7.46
2024-02-14T19:42:40.038Z,7.44
2024-02-14T19:45:13.519Z,7.43
2024-02-14T19:47:47.331Z,7.42
2024-02-14T19:50:20.920Z,7.42
2024-02-14T19:52:53.323Z,7.40
2024-02-14T19:55:25.455Z,7.39
2024-02-14T19:57:57.298Z,7.38
2024-02-14T20:00:33.128Z,7.37
2024-02-14T20:03:05.332Z,7.35
2024-02-14T20:05:39.304Z,7.34
2024-02-14T20:08:12.951Z,7.33
2024-02-14T20:10:44.947Z,7.31
2024-02-14T20:13:16.949Z,7.30
2024-02-14T20:15:49.604Z,7.29
2024-02-14T20:18:21.679Z,7.28
2024-02-14T20:20:53.708Z,7.28
2024-02-14T20:23:27.365Z,7.28
2024-02-14T20:25:59.481Z,7.27
2024-02-14T20:28:31.348Z,7.26
2024-02-14T20:31:03.295Z,7.25
2024-02-14T20:33:35.353Z,7.23
2024-02-14T20:36:09.647Z,7.21
2024-02-14T20:38:41.707Z,7.20
2024-02-14T20:41:16.948Z,7.19
2024-02-14T20:43:48.891Z,7.19
2024-02-14T20:46:21.422Z,7.17
2024-02-14T20:48:54.827Z,7.17
2024-02-14T20:51:29.369Z,7.17
2024-02-14T20:54:01.339Z,7.17
2024-02-14T20:56:33.213Z,7.18
2024-02-14T20:59:11.070Z,7.18
2024-02-14T21:01:48.208Z,7.17
2024-02-14T21:04:20.176Z,7.19
2024-02-14T21:06:52.182Z,7.19
2024-02-14T21:09:24.097Z,7.20
2024-02-14T21:12:30.182Z,7.20
2024-02-14T21:15:02.520Z,7.19
2024-02-14T21:17:34.679Z,7.19
2024-02-14T21:20:08.123Z,7.19
2024-02-14T21:22:40.131Z,7.20
2024-02-14T21:25:13.734Z,7.19
2024-02-14T21:27:46.862Z,7.19
2024-02-14T21:30:19.315Z,7.19
2024-02-14T21:32:51.296Z,7.19
2024-02-14T21:35:23.764Z,7.18
2024-02-14T21:37:56.209Z,7.18
2024-02-14T21:40:28.138Z,7.17
2024-02-14T21:43:00.136Z,7.15
2024-02-14T21:45:32.054Z,7.14
2024-02-14T21:48:04.707Z,7.13
2024-02-14T21:50:37.099Z,7.11
2024-02-14T21:53:08.919Z,7.09
2024-02-14T21:56:00.876Z,7.09
2024-02-14T21:58:33.128Z,7.25
2024-02-14T22:01:05.252Z,9.26
2024-02-14T22:03:37.359Z,11.08
2024-02-14T22:06:09.704Z,10.61
2024-02-14T22:08:41.795Z,9.83
2024-02-14T22:11:14.825Z,9.25
2024-02-14T22:13:47.686Z,8.82
2024-02-14T22:16:21.193Z,8.50
2024-02-14T22:18:54.061Z,8.25
2024-02-14T22:21:26.493Z,8.03
2024-02-14T22:23:58.624Z,7.86
2024-02-14T22:26:30.844Z,7.74
2024-02-14T22:29:03.759Z,7.62
2024-02-14T22:31:37.167Z,7.51
2024-02-14T22:34:11.729Z,7.43
2024-02-14T22:36:43.870Z,7.37
2024-02-14T22:39:16.547Z,8.65
2024-02-14T22:41:50.380Z,11.02
2024-02-14T22:44:22.694Z,11.85
2024-02-14T22:46:54.667Z,10.99
2024-02-14T22:49:26.666Z,10.15
2024-02-14T22:51:59.403Z,9.50
2024-02-14T22:54:31.329Z,9.07
2024-02-14T22:57:04.564Z,8.74
2024-02-14T22:59:36.931Z,8.47
2024-02-14T23:02:09.864Z,8.20
2024-02-14T23:04:41.849Z,7.98
2024-02-14T23:07:13.818Z,7.83
2024-02-14T23:09:45.945Z,7.90
2024-02-14T23:12:18.825Z,9.83
2024-02-14T23:14:50.849Z,11.46
2024-02-14T23:17:22.844Z,10.95
2024-02-14T23:19:54.808Z,10.07
2024-02-14T23:22:26.825Z,9.41
2024-02-14T23:24:58.745Z,8.90
2024-02-14T23:27:30.706Z,8.56
2024-02-14T23:30:02.731Z,8.33
2024-02-14T23:32:34.831Z,8.13
2024-02-14T23:35:10.838Z,8.56
2024-02-14T23:37:44.872Z,10.85
2024-02-14T23:40:17.180Z,12.22
2024-02-14T23:42:49.141Z,11.56
2024-02-14T23:45:21.132Z,10.61
2024-02-14T23:47:54.488Z,9.96
2024-02-14T23:50:28.601Z,9.47
2024-02-14T23:53:00.920Z,9.09
2024-02-14T23:55:32.777Z,8.79
2024-02-14T23:58:05.177Z,8.53
